sensor_id;sensor_type;location;lat;lon;timestamp;pressure;altitude;pressure_sealevel;temperature
22322;BMP180;11328;53.928;18.522;2023-02-11T00:01:34;100948.00;;;4.10
22322;BMP180;11328;53.928;18.522;2023-02-11T00:04:04;100963.00;;;4.10
22322;BMP180;11328;53.928;18.522;2023-02-11T00:06:33;100954.00;;;4.10
22322;BMP180;11328;53.928;18.522;2023-02-11T00:09:01;100943.00;;;4.10
22322;BMP180;11328;53.928;18.522;2023-02-11T00:11:29;100949.00;;;4.20
22322;BMP180;11328;53.928;18.522;2023-02-11T00:14:00;100946.00;;;4.10
22322;BMP180;11328;53.928;18.522;2023-02-11T00:16:28;100926.00;;;4.10
22322;BMP180;11328;53.928;18.522;2023-02-11T00:18:55;100913.00;;;4.10
22322;BMP180;11328;53.928;18.522;2023-02-11T00:21:24;100913.00;;;4.20
22322;BMP180;11328;53.928;18.522;2023-02-11T00:23:52;100903.00;;;4.10
22322;BMP180;11328;53.928;18.522;2023-02-11T00:26:24;100899.00;;;4.10
22322;BMP180;11328;53.928;18.522;2023-02-11T00:28:52;100909.00;;;4.10
22322;BMP180;11328;53.928;18.522;2023-02-11T00:31:21;100894.00;;;4.20
22322;BMP180;11328;53.928;18.522;2023-02-11T00:33:49;100891.00;;;4.10
22322;BMP180;11328;53.928;18.522;2023-02-11T00:36:27;100890.00;;;4.10
22322;BMP180;11328;53.928;18.522;2023-02-11T00:38:57;100888.00;;;4.10
22322;BMP180;11328;53.928;18.522;2023-02-11T00:41:24;100887.00;;;4.10
22322;BMP180;11328;53.928;18.522;2023-02-11T00:43:52;100847.00;;;4.00
22322;BMP180;11328;53.928;18.522;2023-02-11T00:46:20;100872.00;;;4.00
22322;BMP180;11328;53.928;18.522;2023-02-11T00:48:47;100859.00;;;4.10
22322;BMP180;11328;53.928;18.522;2023-02-11T00:51:14;100852.00;;;4.00
22322;BMP180;11328;53.928;18.522;2023-02-11T00:53:42;100836.00;;;4.00
22322;BMP180;11328;53.928;18.522;2023-02-11T00:56:09;100820.00;;;4.00
22322;BMP180;11328;53.928;18.522;2023-02-11T00:58:36;100826.00;;;3.90
22322;BMP180;11328;53.928;18.522;2023-02-11T01:01:04;100810.00;;;4.00
22322;BMP180;11328;53.928;18.522;2023-02-11T01:03:31;100819.00;;;4.00
22322;BMP180;11328;53.928;18.522;2023-02-11T01:05:58;100805.00;;;3.90
22322;BMP180;11328;53.928;18.522;2023-02-11T01:08:25;100800.00;;;3.90
22322;BMP180;11328;53.928;18.522;2023-02-11T01:11:02;100791.00;;;3.80
22322;BMP180;11328;53.928;18.522;2023-02-11T01:13:31;100783.00;;;4.00
22322;BMP180;11328;53.928;18.522;2023-02-11T01:15:59;100769.00;;;3.90
22322;BMP180;11328;53.928;18.522;2023-02-11T01:18:26;100772.00;;;3.90
22322;BMP180;11328;53.928;18.522;2023-02-11T01:20:53;100761.00;;;3.90
22322;BMP180;11328;53.928;18.522;2023-02-11T01:23:20;100762.00;;;3.90
22322;BMP180;11328;53.928;18.522;2023-02-11T01:25:48;100742.00;;;3.80
22322;BMP180;11328;53.928;18.522;2023-02-11T01:28:26;100735.00;;;3.80
22322;BMP180;11328;53.928;18.522;2023-02-11T01:30:54;100731.00;;;3.80
22322;BMP180;11328;53.928;18.522;2023-02-11T01:33:22;100739.00;;;3.90
22322;BMP180;11328;53.928;18.522;2023-02-11T01:35:49;100735.00;;;3.90
22322;BMP180;11328;53.928;18.522;2023-02-11T01:38:24;100734.00;;;3.80
22322;BMP180;11328;53.928;18.522;2023-02-11T01:40:58;100713.00;;;3.80
22322;BMP180;11328;53.928;18.522;2023-02-11T01:43:29;100703.00;;;3.80
22322;BMP180;11328;53.928;18.522;2023-02-11T01:46:36;100706.00;;;3.80
22322;BMP180;11328;53.928;18.522;2023-02-11T01:49:10;100709.00;;;3.80
22322;BMP180;11328;53.928;18.522;2023-02-11T01:51:47;100697.00;;;3.80
22322;BMP180;11328;53.928;18.522;2023-02-11T01:54:21;100697.00;;;3.80
22322;BMP180;11328;53.928;18.522;2023-02-11T01:57:07;100690.00;;;3.80
22322;BMP180;11328;53.928;18.522;2023-02-11T02:00:00;100701.00;;;3.70
22322;BMP180;11328;53.928;18.522;2023-02-11T02:10:41;100682.00;;;3.80
22322;BMP180;11328;53.928;18.522;2023-02-11T02:13:09;100668.00;;;3.80
22322;BMP180;11328;53.928;18.522;2023-02-11T02:15:39;100669.00;;;3.80
22322;BMP180;11328;53.928;18.522;2023-02-11T02:29:03;100640.00;;;3.80
22322;BMP180;11328;53.928;18.522;2023-02-11T02:37:25;100620.00;;;3.80
22322;BMP180;11328;53.928;18.522;2023-02-11T02:39:56;100624.00;;;3.80
22322;BMP180;11328;53.928;18.522;2023-02-11T02:42:25;100624.00;;;3.80
22322;BMP180;11328;53.928;18.522;2023-02-11T02:44:54;100619.00;;;3.80
22322;BMP180;11328;53.928;18.522;2023-02-11T02:47:21;100615.00;;;3.70
22322;BMP180;11328;53.928;18.522;2023-02-11T02:49:48;100615.00;;;3.80
22322;BMP180;11328;53.928;18.522;2023-02-11T03:01:15;100578.00;;;3.80
22322;BMP180;11328;53.928;18.522;2023-02-11T03:09:41;100546.00;;;3.70
22322;BMP180;11328;53.928;18.522;2023-02-11T03:12:06;100543.00;;;3.70
22322;BMP180;11328;53.928;18.522;2023-02-11T03:14:35;100537.00;;;3.70
22322;BMP180;11328;53.928;18.522;2023-02-11T03:17:05;100534.00;;;3.70
22322;BMP180;11328;53.928;18.522;2023-02-11T03:19:43;100528.00;;;3.70
22322;BMP180;11328;53.928;18.522;2023-02-11T03:22:21;100529.00;;;3.60
22322;BMP180;11328;53.928;18.522;2023-02-11T03:24:48;100530.00;;;3.60
22322;BMP180;11328;53.928;18.522;2023-02-11T03:27:32;100527.00;;;3.70
22322;BMP180;11328;53.928;18.522;2023-02-11T03:32:51;100524.00;;;3.60
22322;BMP180;11328;53.928;18.522;2023-02-11T03:35:28;100516.00;;;3.50
22322;BMP180;11328;53.928;18.522;2023-02-11T03:38:15;100527.00;;;3.50
22322;BMP180;11328;53.928;18.522;2023-02-11T03:40:43;100487.00;;;3.60
22322;BMP180;11328;53.928;18.522;2023-02-11T03:43:24;100516.00;;;3.60
22322;BMP180;11328;53.928;18.522;2023-02-11T03:45:54;100514.00;;;3.60
22322;BMP180;11328;53.928;18.522;2023-02-11T03:48:28;100511.00;;;3.70
22322;BMP180;11328;53.928;18.522;2023-02-11T03:51:00;100512.00;;;3.60
22322;BMP180;11328;53.928;18.522;2023-02-11T03:53:28;100522.00;;;3.60
22322;BMP180;11328;53.928;18.522;2023-02-11T03:55:59;100513.00;;;3.50
22322;BMP180;11328;53.928;18.522;2023-02-11T03:58:28;100508.00;;;3.60
22322;BMP180;11328;53.928;18.522;2023-02-11T04:00:55;100500.00;;;3.60
22322;BMP180;11328;53.928;18.522;2023-02-11T04:03:22;100491.00;;;3.60
22322;BMP180;11328;53.928;18.522;2023-02-11T04:05:48;100483.00;;;3.60
22322;BMP180;11328;53.928;18.522;2023-02-11T04:08:16;100484.00;;;3.70
22322;BMP180;11328;53.928;18.522;2023-02-11T04:10:42;100474.00;;;3.60
22322;BMP180;11328;53.928;18.522;2023-02-11T04:13:09;100492.00;;;3.70
22322;BMP180;11328;53.928;18.522;2023-02-11T04:15:36;100488.00;;;3.30
22322;BMP180;11328;53.928;18.522;2023-02-11T04:18:03;100498.00;;;3.70
22322;BMP180;11328;53.928;18.522;2023-02-11T04:20:30;100493.00;;;3.70
22322;BMP180;11328;53.928;18.522;2023-02-11T04:22:57;100488.00;;;3.60
22322;BMP180;11328;53.928;18.522;2023-02-11T04:25:24;100476.00;;;3.60
22322;BMP180;11328;53.928;18.522;2023-02-11T04:27:51;100487.00;;;3.60
22322;BMP180;11328;53.928;18.522;2023-02-11T04:30:18;100481.00;;;3.60
22322;BMP180;11328;53.928;18.522;2023-02-11T04:32:45;100463.00;;;3.70
22322;BMP180;11328;53.928;18.522;2023-02-11T04:35:12;100467.00;;;3.60
22322;BMP180;11328;53.928;18.522;2023-02-11T04:37:39;100467.00;;;3.60
22322;BMP180;11328;53.928;18.522;2023-02-11T04:40:07;100458.00;;;3.60
22322;BMP180;11328;53.928;18.522;2023-02-11T04:42:34;100451.00;;;3.50
22322;BMP180;11328;53.928;18.522;2023-02-11T04:45:01;100442.00;;;3.40
22322;BMP180;11328;53.928;18.522;2023-02-11T04:47:28;100432.00;;;3.40
22322;BMP180;11328;53.928;18.522;2023-02-11T04:49:55;100427.00;;;3.40
22322;BMP180;11328;53.928;18.522;2023-02-11T04:52:22;100425.00;;;3.40
22322;BMP180;11328;53.928;18.522;2023-02-11T04:54:49;100425.00;;;3.40
22322;BMP180;11328;53.928;18.522;2023-02-11T04:57:16;100432.00;;;3.40
22322;BMP180;11328;53.928;18.522;2023-02-11T04:59:43;100411.00;;;3.40
22322;BMP180;11328;53.928;18.522;2023-02-11T05:02:10;100404.00;;;3.30
22322;BMP180;11328;53.928;18.522;2023-02-11T05:04:37;100382.00;;;3.30
22322;BMP180;11328;53.928;18.522;2023-02-11T05:07:03;100386.00;;;3.20
22322;BMP180;11328;53.928;18.522;2023-02-11T05:09:30;100372.00;;;3.20
22322;BMP180;11328;53.928;18.522;2023-02-11T05:11:57;100371.00;;;3.20
22322;BMP180;11328;53.928;18.522;2023-02-11T05:14:24;100368.00;;;3.20
22322;BMP180;11328;53.928;18.522;2023-02-11T05:16:51;100344.00;;;3.20
22322;BMP180;11328;53.928;18.522;2023-02-11T05:19:18;100346.00;;;3.20
22322;BMP180;11328;53.928;18.522;2023-02-11T05:21:45;100346.00;;;3.20
22322;BMP180;11328;53.928;18.522;2023-02-11T05:24:29;100307.00;;;3.20
22322;BMP180;11328;53.928;18.522;2023-02-11T05:26:56;100347.00;;;3.10
22322;BMP180;11328;53.928;18.522;2023-02-11T05:29:23;100341.00;;;3.10
22322;BMP180;11328;53.928;18.522;2023-02-11T05:31:50;100338.00;;;3.10
22322;BMP180;11328;53.928;18.522;2023-02-11T05:34:17;100320.00;;;3.10
22322;BMP180;11328;53.928;18.522;2023-02-11T05:36:44;100326.00;;;3.10
22322;BMP180;11328;53.928;18.522;2023-02-11T05:39:11;100324.00;;;3.20
22322;BMP180;11328;53.928;18.522;2023-02-11T05:41:38;100326.00;;;3.10
22322;BMP180;11328;53.928;18.522;2023-02-11T05:44:04;100332.00;;;3.20
22322;BMP180;11328;53.928;18.522;2023-02-11T05:46:31;100323.00;;;3.20
22322;BMP180;11328;53.928;18.522;2023-02-11T05:48:59;100316.00;;;3.10
22322;BMP180;11328;53.928;18.522;2023-02-11T05:51:26;100318.00;;;3.10
22322;BMP180;11328;53.928;18.522;2023-02-11T05:53:53;100313.00;;;3.10
22322;BMP180;11328;53.928;18.522;2023-02-11T05:56:20;100304.00;;;3.10
22322;BMP180;11328;53.928;18.522;2023-02-11T05:58:47;100307.00;;;3.10
22322;BMP180;11328;53.928;18.522;2023-02-11T06:01:14;100308.00;;;3.10
22322;BMP180;11328;53.928;18.522;2023-02-11T06:03:40;100298.00;;;3.20
22322;BMP180;11328;53.928;18.522;2023-02-11T06:06:11;100306.00;;;3.20
22322;BMP180;11328;53.928;18.522;2023-02-11T06:08:38;100302.00;;;3.20
22322;BMP180;11328;53.928;18.522;2023-02-11T06:11:05;100293.00;;;3.30
22322;BMP180;11328;53.928;18.522;2023-02-11T06:13:33;100289.00;;;3.20
22322;BMP180;11328;53.928;18.522;2023-02-11T06:16:02;100286.00;;;3.10
22322;BMP180;11328;53.928;18.522;2023-02-11T06:18:29;100282.00;;;3.10
22322;BMP180;11328;53.928;18.522;2023-02-11T06:20:56;100275.00;;;3.20
22322;BMP180;11328;53.928;18.522;2023-02-11T06:23:23;100272.00;;;3.20
22322;BMP180;11328;53.928;18.522;2023-02-11T06:25:51;100264.00;;;3.20
22322;BMP180;11328;53.928;18.522;2023-02-11T06:28:18;100252.00;;;3.20
22322;BMP180;11328;53.928;18.522;2023-02-11T06:30:45;100235.00;;;3.20
22322;BMP180;11328;53.928;18.522;2023-02-11T06:33:12;100212.00;;;3.20
22322;BMP180;11328;53.928;18.522;2023-02-11T06:35:39;100229.00;;;3.20
22322;BMP180;11328;53.928;18.522;2023-02-11T06:38:06;100244.00;;;3.20
22322;BMP180;11328;53.928;18.522;2023-02-11T06:40:33;100248.00;;;3.30
22322;BMP180;11328;53.928;18.522;2023-02-11T06:43:00;100201.00;;;3.30
22322;BMP180;11328;53.928;18.522;2023-02-11T06:45:26;100230.00;;;3.30
22322;BMP180;11328;53.928;18.522;2023-02-11T06:47:53;100214.00;;;3.30
22322;BMP180;11328;53.928;18.522;2023-02-11T06:50:20;100221.00;;;3.30
22322;BMP180;11328;53.928;18.522;2023-02-11T06:52:47;100231.00;;;3.30
22322;BMP180;11328;53.928;18.522;2023-02-11T06:55:14;100210.00;;;3.30
22322;BMP180;11328;53.928;18.522;2023-02-11T06:57:41;100225.00;;;3.30
22322;BMP180;11328;53.928;18.522;2023-02-11T07:00:09;100226.00;;;3.20
22322;BMP180;11328;53.928;18.522;2023-02-11T07:02:36;100220.00;;;3.20
22322;BMP180;11328;53.928;18.522;2023-02-11T07:05:05;100212.00;;;3.30
22322;BMP180;11328;53.928;18.522;2023-02-11T07:07:33;100214.00;;;3.30
22322;BMP180;11328;53.928;18.522;2023-02-11T07:10:00;100226.00;;;3.30
22322;BMP180;11328;53.928;18.522;2023-02-11T07:12:29;100229.00;;;3.30
22322;BMP180;11328;53.928;18.522;2023-02-11T07:14:57;100235.00;;;3.40
22322;BMP180;11328;53.928;18.522;2023-02-11T07:17:24;100249.00;;;3.40
22322;BMP180;11328;53.928;18.522;2023-02-11T07:19:50;100245.00;;;3.40
22322;BMP180;11328;53.928;18.522;2023-02-11T07:22:17;100260.00;;;3.40
22322;BMP180;11328;53.928;18.522;2023-02-11T07:24:44;100242.00;;;3.50
22322;BMP180;11328;53.928;18.522;2023-02-11T07:27:11;100252.00;;;3.50
22322;BMP180;11328;53.928;18.522;2023-02-11T07:29:40;100264.00;;;3.50
22322;BMP180;11328;53.928;18.522;2023-02-11T07:32:07;100260.00;;;3.60
22322;BMP180;11328;53.928;18.522;2023-02-11T07:34:34;100261.00;;;3.60
22322;BMP180;11328;53.928;18.522;2023-02-11T07:37:01;100259.00;;;3.70
22322;BMP180;11328;53.928;18.522;2023-02-11T07:39:28;100257.00;;;3.80
22322;BMP180;11328;53.928;18.522;2023-02-11T07:41:55;100248.00;;;3.80
22322;BMP180;11328;53.928;18.522;2023-02-11T07:44:22;100226.00;;;3.80
22322;BMP180;11328;53.928;18.522;2023-02-11T07:46:49;100219.00;;;3.90
22322;BMP180;11328;53.928;18.522;2023-02-11T07:49:16;100205.00;;;3.90
22322;BMP180;11328;53.928;18.522;2023-02-11T07:51:43;100207.00;;;3.90
22322;BMP180;11328;53.928;18.522;2023-02-11T07:54:11;100203.00;;;3.90
22322;BMP180;11328;53.928;18.522;2023-02-11T07:56:38;100215.00;;;3.90
22322;BMP180;11328;53.928;18.522;2023-02-11T07:59:05;100221.00;;;3.90
22322;BMP180;11328;53.928;18.522;2023-02-11T08:01:34;100217.00;;;4.00
22322;BMP180;11328;53.928;18.522;2023-02-11T08:04:02;100211.00;;;4.00
22322;BMP180;11328;53.928;18.522;2023-02-11T08:06:32;100222.00;;;4.10
22322;BMP180;11328;53.928;18.522;2023-02-11T08:09:06;100190.00;;;4.10
22322;BMP180;11328;53.928;18.522;2023-02-11T08:11:33;100226.00;;;4.10
22322;BMP180;11328;53.928;18.522;2023-02-11T08:14:00;100239.00;;;4.10
22322;BMP180;11328;53.928;18.522;2023-02-11T08:16:31;100224.00;;;4.20
22322;BMP180;11328;53.928;18.522;2023-02-11T08:19:03;100243.00;;;4.30
22322;BMP180;11328;53.928;18.522;2023-02-11T08:21:30;100239.00;;;4.30
22322;BMP180;11328;53.928;18.522;2023-02-11T08:23:57;100229.00;;;4.40
22322;BMP180;11328;53.928;18.522;2023-02-11T08:26:29;100239.00;;;4.40
22322;BMP180;11328;53.928;18.522;2023-02-11T08:29:10;100252.00;;;4.60
22322;BMP180;11328;53.928;18.522;2023-02-11T08:31:41;100240.00;;;4.60
22322;BMP180;11328;53.928;18.522;2023-02-11T08:34:09;100225.00;;;4.70
22322;BMP180;11328;53.928;18.522;2023-02-11T08:36:38;100215.00;;;4.70
22322;BMP180;11328;53.928;18.522;2023-02-11T08:39:12;100185.00;;;4.70
22322;BMP180;11328;53.928;18.522;2023-02-11T08:41:50;100193.00;;;4.80
22322;BMP180;11328;53.928;18.522;2023-02-11T08:44:19;100176.00;;;4.80
22322;BMP180;11328;53.928;18.522;2023-02-11T09:00:07;100120.00;;;5.40
22322;BMP180;11328;53.928;18.522;2023-02-11T09:02:34;100110.00;;;5.30
22322;BMP180;11328;53.928;18.522;2023-02-11T09:05:01;100145.00;;;5.30
22322;BMP180;11328;53.928;18.522;2023-02-11T09:07:29;100117.00;;;5.20
22322;BMP180;11328;53.928;18.522;2023-02-11T09:09:55;100137.00;;;5.20
22322;BMP180;11328;53.928;18.522;2023-02-11T09:12:23;100095.00;;;5.20
22322;BMP180;11328;53.928;18.522;2023-02-11T09:14:50;100149.00;;;5.10
22322;BMP180;11328;53.928;18.522;2023-02-11T09:17:17;100158.00;;;5.10
22322;BMP180;11328;53.928;18.522;2023-02-11T09:19:44;100166.00;;;5.10
22322;BMP180;11328;53.928;18.522;2023-02-11T09:22:11;100154.00;;;5.10
22322;BMP180;11328;53.928;18.522;2023-02-11T09:24:38;100156.00;;;5.10
22322;BMP180;11328;53.928;18.522;2023-02-11T09:27:05;100152.00;;;5.10
22322;BMP180;11328;53.928;18.522;2023-02-11T09:29:32;100168.00;;;5.10
22322;BMP180;11328;53.928;18.522;2023-02-11T09:31:59;100144.00;;;5.10
22322;BMP180;11328;53.928;18.522;2023-02-11T09:34:27;100173.00;;;5.10
22322;BMP180;11328;53.928;18.522;2023-02-11T09:36:54;100183.00;;;5.10
22322;BMP180;11328;53.928;18.522;2023-02-11T09:39:21;100166.00;;;5.10
22322;BMP180;11328;53.928;18.522;2023-02-11T09:45:24;100192.00;;;5.10
22322;BMP180;11328;53.928;18.522;2023-02-11T09:48:04;100219.00;;;5.10
22322;BMP180;11328;53.928;18.522;2023-02-11T09:50:38;100203.00;;;5.20
22322;BMP180;11328;53.928;18.522;2023-02-11T09:53:23;100189.00;;;5.20
22322;BMP180;11328;53.928;18.522;2023-02-11T09:56:14;100169.00;;;5.40
22322;BMP180;11328;53.928;18.522;2023-02-11T09:58:43;100183.00;;;5.40
22322;BMP180;11328;53.928;18.522;2023-02-11T10:01:39;100193.00;;;5.40
22322;BMP180;11328;53.928;18.522;2023-02-11T10:07:49;100193.00;;;5.40
22322;BMP180;11328;53.928;18.522;2023-02-11T10:13:04;100192.00;;;5.40
22322;BMP180;11328;53.928;18.522;2023-02-11T10:18:49;100208.00;;;5.50
22322;BMP180;11328;53.928;18.522;2023-02-11T10:24:15;100203.00;;;5.60
22322;BMP180;11328;53.928;18.522;2023-02-11T10:26:44;100199.00;;;5.60
22322;BMP180;11328;53.928;18.522;2023-02-11T10:29:34;100202.00;;;5.60
22322;BMP180;11328;53.928;18.522;2023-02-11T10:32:28;100210.00;;;5.70
22322;BMP180;11328;53.928;18.522;2023-02-11T10:35:03;100212.00;;;5.70
22322;BMP180;11328;53.928;18.522;2023-02-11T10:37:36;100202.00;;;5.80
22322;BMP180;11328;53.928;18.522;2023-02-11T10:40:10;100199.00;;;5.80
22322;BMP180;11328;53.928;18.522;2023-02-11T10:42:44;100211.00;;;5.80
22322;BMP180;11328;53.928;18.522;2023-02-11T10:45:35;100201.00;;;5.80
22322;BMP180;11328;53.928;18.522;2023-02-11T10:48:05;100192.00;;;5.80
22322;BMP180;11328;53.928;18.522;2023-02-11T10:51:14;100207.00;;;5.90
22322;BMP180;11328;53.928;18.522;2023-02-11T10:56:58;100207.00;;;6.00
22322;BMP180;11328;53.928;18.522;2023-02-11T10:59:36;100216.00;;;6.00
22322;BMP180;11328;53.928;18.522;2023-02-11T11:02:23;100231.00;;;6.00
22322;BMP180;11328;53.928;18.522;2023-02-11T11:05:18;100235.00;;;6.00
22322;BMP180;11328;53.928;18.522;2023-02-11T11:07:57;100223.00;;;6.20
22322;BMP180;11328;53.928;18.522;2023-02-11T11:10:43;100245.00;;;6.20
22322;BMP180;11328;53.928;18.522;2023-02-11T11:16:32;100251.00;;;6.30
22322;BMP180;11328;53.928;18.522;2023-02-11T11:21:53;100271.00;;;6.40
22322;BMP180;11328;53.928;18.522;2023-02-11T11:24:31;100281.00;;;6.40
22322;BMP180;11328;53.928;18.522;2023-02-11T11:27:03;100265.00;;;6.50
22322;BMP180;11328;53.928;18.522;2023-02-11T11:32:31;100283.00;;;6.60
22322;BMP180;11328;53.928;18.522;2023-02-11T11:35:02;100270.00;;;6.60
22322;BMP180;11328;53.928;18.522;2023-02-11T11:37:35;100284.00;;;6.70
22322;BMP180;11328;53.928;18.522;2023-02-11T11:40:22;100283.00;;;6.60
22322;BMP180;11328;53.928;18.522;2023-02-11T11:45:58;100309.00;;;6.70
22322;BMP180;11328;53.928;18.522;2023-02-11T11:48:37;100298.00;;;6.70
22322;BMP180;11328;53.928;18.522;2023-02-11T11:51:10;100309.00;;;6.80
22322;BMP180;11328;53.928;18.522;2023-02-11T11:53:58;100304.00;;;6.80
22322;BMP180;11328;53.928;18.522;2023-02-11T11:56:31;100320.00;;;6.90
22322;BMP180;11328;53.928;18.522;2023-02-11T11:59:08;100315.00;;;6.80
22322;BMP180;11328;53.928;18.522;2023-02-11T12:01:54;100322.00;;;7.00
22322;BMP180;11328;53.928;18.522;2023-02-11T12:24:43;100368.00;;;7.20
22322;BMP180;11328;53.928;18.522;2023-02-11T12:42:17;100383.00;;;7.10
22322;BMP180;11328;53.928;18.522;2023-02-11T12:48:00;100373.00;;;7.20
22322;BMP180;11328;53.928;18.522;2023-02-11T12:57:14;100386.00;;;7.20
22322;BMP180;11328;53.928;18.522;2023-02-11T13:00:04;100322.00;;;7.20
22322;BMP180;11328;53.928;18.522;2023-02-11T13:05:50;100401.00;;;7.10
22322;BMP180;11328;53.928;18.522;2023-02-11T13:08:25;100411.00;;;7.10
22322;BMP180;11328;53.928;18.522;2023-02-11T13:11:02;100357.00;;;7.20
22322;BMP180;11328;53.928;18.522;2023-02-11T13:13:55;100415.00;;;7.20
22322;BMP180;11328;53.928;18.522;2023-02-11T13:16:44;100414.00;;;7.20
22322;BMP180;11328;53.928;18.522;2023-02-11T13:25:51;100444.00;;;7.20
22322;BMP180;11328;53.928;18.522;2023-02-11T13:30:44;100440.00;;;7.20
22322;BMP180;11328;53.928;18.522;2023-02-11T13:33:18;100441.00;;;7.20
22322;BMP180;11328;53.928;18.522;2023-02-11T13:38:28;100439.00;;;7.20
22322;BMP180;11328;53.928;18.522;2023-02-11T13:41:35;100448.00;;;7.20
22322;BMP180;11328;53.928;18.522;2023-02-11T13:46:59;100452.00;;;7.20
22322;BMP180;11328;53.928;18.522;2023-02-11T13:49:40;100453.00;;;7.20
22322;BMP180;11328;53.928;18.522;2023-02-11T13:52:31;100457.00;;;7.20
22322;BMP180;11328;53.928;18.522;2023-02-11T13:55:22;100450.00;;;7.00
22322;BMP180;11328;53.928;18.522;2023-02-11T14:00:48;100469.00;;;7.10
22322;BMP180;11328;53.928;18.522;2023-02-11T14:03:33;100474.00;;;7.00
22322;BMP180;11328;53.928;18.522;2023-02-11T14:06:26;100480.00;;;7.10
22322;BMP180;11328;53.928;18.522;2023-02-11T14:09:37;100483.00;;;7.10
22322;BMP180;11328;53.928;18.522;2023-02-11T14:12:32;100488.00;;;7.10
22322;BMP180;11328;53.928;18.522;2023-02-11T14:15:20;100496.00;;;7.10
22322;BMP180;11328;53.928;18.522;2023-02-11T14:17:49;100500.00;;;7.10
22322;BMP180;11328;53.928;18.522;2023-02-11T14:20:36;100498.00;;;7.00
22322;BMP180;11328;53.928;18.522;2023-02-11T14:23:19;100509.00;;;7.10
22322;BMP180;11328;53.928;18.522;2023-02-11T14:26:03;100522.00;;;7.10
22322;BMP180;11328;53.928;18.522;2023-02-11T14:28:33;100514.00;;;7.20
22322;BMP180;11328;53.928;18.522;2023-02-11T14:31:11;100521.00;;;7.10
22322;BMP180;11328;53.928;18.522;2023-02-11T14:34:07;100536.00;;;7.20
22322;BMP180;11328;53.928;18.522;2023-02-11T14:37:31;100536.00;;;7.20
22322;BMP180;11328;53.928;18.522;2023-02-11T14:42:37;100542.00;;;7.20
22322;BMP180;11328;53.928;18.522;2023-02-11T14:45:10;100552.00;;;7.20
22322;BMP180;11328;53.928;18.522;2023-02-11T14:48:06;100566.00;;;7.20
22322;BMP180;11328;53.928;18.522;2023-02-11T14:50:52;100565.00;;;7.10
22322;BMP180;11328;53.928;18.522;2023-02-11T14:53:24;100574.00;;;7.10
22322;BMP180;11328;53.928;18.522;2023-02-11T14:55:54;100578.00;;;7.10
22322;BMP180;11328;53.928;18.522;2023-02-11T14:58:28;100582.00;;;7.20
22322;BMP180;11328;53.928;18.522;2023-02-11T15:06:06;100594.00;;;7.10
22322;BMP180;11328;53.928;18.522;2023-02-11T15:08:36;100599.00;;;7.00
22322;BMP180;11328;53.928;18.522;2023-02-11T15:11:11;100441.00;;;7.10
22322;BMP180;11328;53.928;18.522;2023-02-11T15:13:40;100603.00;;;7.00
22322;BMP180;11328;53.928;18.522;2023-02-11T15:16:16;100606.00;;;7.10
22322;BMP180;11328;53.928;18.522;2023-02-11T15:19:05;100612.00;;;7.10
22322;BMP180;11328;53.928;18.522;2023-02-11T15:21:35;100620.00;;;7.00
22322;BMP180;11328;53.928;18.522;2023-02-11T15:27:22;100636.00;;;7.10
22322;BMP180;11328;53.928;18.522;2023-02-11T15:29:53;100649.00;;;7.10
22322;BMP180;11328;53.928;18.522;2023-02-11T15:32:24;100647.00;;;7.10
22322;BMP180;11328;53.928;18.522;2023-02-11T15:34:53;100639.00;;;7.20
22322;BMP180;11328;53.928;18.522;2023-02-11T15:37:26;100655.00;;;7.10
22322;BMP180;11328;53.928;18.522;2023-02-11T15:40:22;100659.00;;;7.20
22322;BMP180;11328;53.928;18.522;2023-02-11T15:46:14;100673.00;;;7.20
22322;BMP180;11328;53.928;18.522;2023-02-11T15:48:51;100681.00;;;7.20
22322;BMP180;11328;53.928;18.522;2023-02-11T15:51:27;100690.00;;;7.10
22322;BMP180;11328;53.928;18.522;2023-02-11T15:53:59;100695.00;;;7.10
22322;BMP180;11328;53.928;18.522;2023-02-11T15:56:41;100707.00;;;7.20
22322;BMP180;11328;53.928;18.522;2023-02-11T15:59:28;100704.00;;;7.10
22322;BMP180;11328;53.928;18.522;2023-02-11T16:02:18;100716.00;;;7.10
22322;BMP180;11328;53.928;18.522;2023-02-11T16:05:08;100723.00;;;7.10
22322;BMP180;11328;53.928;18.522;2023-02-11T16:07:44;100725.00;;;7.10
22322;BMP180;11328;53.928;18.522;2023-02-11T16:12:58;100739.00;;;7.20
22322;BMP180;11328;53.928;18.522;2023-02-11T16:20:48;100761.00;;;7.20
22322;BMP180;11328;53.928;18.522;2023-02-11T16:23:24;100752.00;;;7.20
22322;BMP180;11328;53.928;18.522;2023-02-11T16:26:02;100763.00;;;7.20
22322;BMP180;11328;53.928;18.522;2023-02-11T16:28:34;100668.00;;;7.20
22322;BMP180;11328;53.928;18.522;2023-02-11T16:31:03;100768.00;;;7.20
22322;BMP180;11328;53.928;18.522;2023-02-11T16:33:31;100774.00;;;7.20
22322;BMP180;11328;53.928;18.522;2023-02-11T16:35:59;100766.00;;;7.30
22322;BMP180;11328;53.928;18.522;2023-02-11T16:38:31;100788.00;;;7.10
22322;BMP180;11328;53.928;18.522;2023-02-11T16:40:58;100801.00;;;7.30
22322;BMP180;11328;53.928;18.522;2023-02-11T16:43:25;100812.00;;;7.20
22322;BMP180;11328;53.928;18.522;2023-02-11T16:45:52;100821.00;;;7.20
22322;BMP180;11328;53.928;18.522;2023-02-11T16:48:20;100817.00;;;7.30
22322;BMP180;11328;53.928;18.522;2023-02-11T16:50:49;100827.00;;;7.40
22322;BMP180;11328;53.928;18.522;2023-02-11T16:53:23;100844.00;;;7.40
22322;BMP180;11328;53.928;18.522;2023-02-11T16:55:52;100838.00;;;7.50
22322;BMP180;11328;53.928;18.522;2023-02-11T16:58:19;100845.00;;;7.50
22322;BMP180;11328;53.928;18.522;2023-02-11T17:00:47;100855.00;;;7.50
22322;BMP180;11328;53.928;18.522;2023-02-11T17:03:24;100861.00;;;7.40
22322;BMP180;11328;53.928;18.522;2023-02-11T17:05:55;100869.00;;;7.40
22322;BMP180;11328;53.928;18.522;2023-02-11T17:08:23;100878.00;;;7.40
22322;BMP180;11328;53.928;18.522;2023-02-11T17:10:50;100890.00;;;7.30
22322;BMP180;11328;53.928;18.522;2023-02-11T17:13:18;100883.00;;;7.40
22322;BMP180;11328;53.928;18.522;2023-02-11T17:15:45;100894.00;;;7.40
22322;BMP180;11328;53.928;18.522;2023-02-11T17:18:13;100895.00;;;7.40
22322;BMP180;11328;53.928;18.522;2023-02-11T17:20:41;100905.00;;;7.40